Terminal Aerodrome Forecast
Issued by NWS

Home | Current Version | Previous Version | Text Only | Print | Product List | Glossary On
Versions: 1 2 3 4 5 6 7 8 9 10 11 12 13 14 15 16 17 18 19 20
000
FTUS43 KIND 231400 AAC
TAFBMG
TAF AMD
KBMG 231428Z 2314/2412 35015G23KT P6SM -RA FEW050 FEW100 BKN120
     FM231500 30008KT P6SM VCTS SCT010 BKN030CB
     FM231700 33008KT P6SM BKN040
     FM232000 34010KT P6SM SCT050 BKN250=

USA.gov is the U.S. government's official web portal to all federal, state and local government web resources and services.